Time;durP1;ratioP1;P1;durP2;ratioP2;P2;SDS_P1;SDS_P2;PMS_P1;PMS_P2;Temp;Humidity;BMP_temperature;BMP_pressure;BME280_temperature;BME280_humidity;BME280_pressure;Samples;Min_cycle;Max_cycle;Signal;HPM_P1;HPM_P2
2021/07/17 00:01:29;;;;;;;15.07;6.10;;;;;;;17.41;93.98;101523.24;124918;1092;64261;-83
2021/07/17 00:03:57;;;;;;;20.87;6.13;;;;;;;17.39;94.09;101530.66;124938;1093;64246;-82
2021/07/17 00:06:28;;;;;;;21.77;7.60;;;;;;;17.36;94.09;101525.68;125164;1092;64259;-85
2021/07/17 00:08:56;;;;;;;29.07;7.47;;;;;;;17.33;94.37;101520.73;126789;1092;64333;-82
2021/07/17 00:11:23;;;;;;;16.00;6.33;;;;;;;17.31;94.11;101533.51;128424;1093;61496;-83
2021/07/17 00:13:50;;;;;;;16.30;6.57;;;;;;;17.29;94.05;101524.83;128411;1097;61828;-82
2021/07/17 00:16:18;;;;;;;25.50;8.20;;;;;;;17.26;94.46;101514.52;126752;1093;64168;-84
2021/07/17 00:18:45;;;;;;;21.37;7.77;;;;;;;17.24;94.40;101517.39;125141;1093;64265;-89
2021/07/17 00:21:13;;;;;;;18.47;7.30;;;;;;;17.21;94.56;101519.63;124954;1092;64449;-83
2021/07/17 00:23:40;;;;;;;15.03;6.13;;;;;;;17.19;94.40;101516.32;124955;1093;64306;-83
2021/07/17 00:26:07;;;;;;;20.43;7.30;;;;;;;17.16;94.74;101514.05;124778;1093;64450;-83
2021/07/17 00:28:34;;;;;;;24.60;6.60;;;;;;;17.11;95.03;101517.33;125100;1092;64313;-83
2021/07/17 00:31:01;;;;;;;25.77;8.03;;;;;;;17.06;94.93;101520.58;125056;1093;64323;-82
2021/07/17 00:33:28;;;;;;;17.13;6.00;;;;;;;17.01;95.21;101522.22;124938;1093;64304;-83
2021/07/17 00:35:55;;;;;;;16.60;6.73;;;;;;;16.97;95.01;101513.73;124895;1093;64240;-83
2021/07/17 00:38:22;;;;;;;26.33;8.53;;;;;;;16.95;95.45;101518.46;124857;1093;65047;-82
2021/07/17 00:40:49;;;;;;;17.20;6.50;;;;;;;16.92;95.51;101513.51;124901;1092;64281;-82
2021/07/17 00:43:17;;;;;;;22.97;7.20;;;;;;;16.90;95.58;101512.88;124933;1092;64218;-83
2021/07/17 00:45:44;;;;;;;24.00;7.00;;;;;;;16.88;95.68;101514.92;124918;1093;64253;-82
2021/07/17 00:48:11;;;;;;;23.27;7.90;;;;;;;16.86;95.70;101508.94;124994;1092;64263;-83
2021/07/17 00:50:38;;;;;;;15.23;6.83;;;;;;;16.83;95.61;101511.98;124946;1093;64240;-83
2021/07/17 00:53:05;;;;;;;21.03;7.93;;;;;;;16.80;95.71;101515.05;125010;1092;64313;-83
2021/07/17 00:55:33;;;;;;;20.07;8.07;;;;;;;16.78;95.89;101509.05;124972;1092;64256;-83
2021/07/17 00:58:02;;;;;;;21.83;9.23;;;;;;;16.75;95.62;101509.45;124963;1093;64429;-82
2021/07/17 01:00:29;;;;;;;22.60;8.83;;;;;;;16.74;96.07;101511.28;125064;1093;64240;-83
2021/07/17 01:03:05;;;;;;;26.60;8.75;;;;;;;16.73;95.76;101503.47;125028;1092;64367;-83
2021/07/17 01:05:33;;;;;;;17.33;7.10;;;;;;;16.73;95.89;101511.50;125029;1093;64365;-83
2021/07/17 01:08:00;;;;;;;19.33;8.90;;;;;;;16.73;95.70;101520.36;124954;1092;64291;-84
2021/07/17 01:10:28;;;;;;;18.77;8.73;;;;;;;16.74;95.92;101518.50;124826;1093;64795;-82
2021/07/17 01:12:55;;;;;;;18.80;7.80;;;;;;;16.75;95.66;101526.35;124952;1093;64379;-83
2021/07/17 01:15:23;;;;;;;22.90;8.60;;;;;;;16.76;95.65;101519.14;126073;1093;64285;-83
2021/07/17 01:17:49;;;;;;;13.13;7.17;;;;;;;16.77;95.78;101526.17;125094;1093;64380;-82
2021/07/17 01:20:23;;;;;;;19.03;8.33;;;;;;;16.77;95.61;101526.98;126156;1092;64291;-83
2021/07/17 01:22:51;;;;;;;19.70;7.90;;;;;;;16.79;95.53;101529.45;125847;1093;64329;-84
2021/07/17 01:25:27;;;;;;;21.17;8.93;;;;;;;16.80;95.24;101525.76;125773;1093;64729;-86
2021/07/17 01:27:56;;;;;;;21.57;8.87;;;;;;;16.79;95.54;101522.27;124993;1092;64275;-84
2021/07/17 01:30:30;;;;;;;27.60;10.43;;;;;;;16.78;95.70;101530.48;124956;1093;62929;-84
2021/07/17 01:32:58;;;;;;;20.67;9.20;;;;;;;16.79;95.58;101524.09;125050;1093;64392;-82
2021/07/17 01:35:25;;;;;;;18.87;7.87;;;;;;;16.79;95.65;101524.09;124883;1092;64560;-82
2021/07/17 01:37:52;;;;;;;24.57;9.47;;;;;;;16.80;95.70;101518.57;124907;1093;64336;-83
2021/07/17 01:40:20;;;;;;;21.53;8.23;;;;;;;16.79;95.58;101516.05;124958;1092;64307;-83
2021/07/17 01:42:49;;;;;;;18.37;8.30;;;;;;;16.80;95.62;101509.69;125022;1093;64311;-83
2021/07/17 01:45:29;;;;;;;14.45;6.85;;;;;;;16.80;95.50;101504.33;125036;1093;64291;-84
2021/07/17 01:47:58;;;;;;;17.87;7.47;;;;;;;16.80;95.58;101509.69;124970;1093;64223;-85
2021/07/17 01:50:31;;;;;;;22.93;8.60;;;;;;;16.80;95.55;101509.69;124918;1093;64734;-83
2021/07/17 01:52:59;;;;;;;21.87;8.07;;;;;;;16.78;95.61;101509.88;125012;1092;64381;-82
2021/07/17 01:55:27;;;;;;;19.30;7.30;;;;;;;16.78;95.70;101517.09;125182;1093;64275;-83
2021/07/17 01:57:54;;;;;;;19.83;8.13;;;;;;;16.77;95.75;101504.73;125016;1093;64671;-83
2021/07/17 02:00:23;;;;;;;22.40;9.03;;;;;;;16.77;95.77;101499.38;124990;1093;64311;-83
2021/07/17 02:02:52;;;;;;;22.53;8.53;;;;;;;16.77;95.51;101510.91;125031;1093;64291;-83
2021/07/17 02:05:21;;;;;;;21.27;8.13;;;;;;;16.79;95.44;101502.66;125083;1092;64406;-83
2021/07/17 02:07:48;;;;;;;25.73;9.23;;;;;;;16.79;95.66;101502.66;125057;1092;65444;-82
2021/07/17 02:10:18;;;;;;;27.45;10.45;;;;;;;16.80;95.59;101496.28;124991;1092;64291;-82
2021/07/17 02:13:16;;;;;;;22.67;8.03;;;;;;;16.80;95.47;101505.17;125104;1092;64447;-83
2021/07/17 02:15:51;;;;;;;29.57;9.93;;;;;;;16.82;95.52;101502.31;124847;1093;64406;-83
2021/07/17 02:18:32;;;;;;;22.10;8.23;;;;;;;16.82;95.50;101507.66;124963;1093;64400;-82
2021/07/17 02:21:07;;;;;;;16.67;7.30;;;;;;;16.84;95.68;101505.63;125152;1093;64307;-83
2021/07/17 02:23:34;;;;;;;;;;;;;;;16.85;95.39;101512.63;125009;1092;64296;-82
2021/07/17 02:26:04;;;;;;;19.03;8.47;;;;;;;16.86;95.63;101503.58;127209;1093;64313;-83
2021/07/17 02:28:31;;;;;;;20.13;9.77;;;;;;;16.83;95.74;101506.63;126337;1093;64355;-85
2021/07/17 02:30:58;;;;;;;20.30;8.75;;;;;;;16.83;95.85;101503.95;125025;1093;64237;-86
2021/07/17 02:33:25;;;;;;;23.43;8.80;;;;;;;16.83;95.75;101509.31;124895;1093;64336;-82
2021/07/17 02:35:52;;;;;;;22.17;8.27;;;;;;;16.82;95.95;101499.63;125020;1092;64211;-83
2021/07/17 02:38:20;;;;;;;25.80;10.17;;;;;;;16.82;95.70;101502.31;125049;1093;64417;-83
2021/07/17 02:40:47;;;;;;;23.20;9.70;;;;;;;16.80;95.86;101493.61;125423;1093;64293;-84
2021/07/17 02:43:15;;;;;;;37.20;10.07;;;;;;;16.80;95.88;101491.78;125082;1093;64285;-83
2021/07/17 02:45:42;;;;;;;20.70;9.20;;;;;;;16.81;95.87;101489.92;124893;1093;64329;-84
2021/07/17 02:48:09;;;;;;;20.87;8.60;;;;;;;16.82;96.21;101499.63;125102;1093;64300;-82
2021/07/17 02:50:36;;;;;;;18.80;9.03;;;;;;;16.81;96.28;101489.92;125172;1093;64253;-85
2021/07/17 02:53:03;;;;;;;24.13;9.57;;;;;;;16.82;96.21;101491.59;124910;1093;64275;-83
2021/07/17 02:55:30;;;;;;;22.47;9.60;;;;;;;16.82;96.22;101492.41;125030;1093;64292;-83
2021/07/17 02:57:58;;;;;;;22.73;8.13;;;;;;;16.82;96.50;101486.23;125085;1093;64318;-84
2021/07/17 03:00:25;;;;;;;20.20;9.50;;;;;;;16.82;96.35;101480.88;124958;1091;64250;-84
2021/07/17 03:02:52;;;;;;;25.80;10.00;;;;;;;16.82;96.65;101489.73;124953;1092;64438;-84
2021/07/17 03:05:19;;;;;;;30.43;10.23;;;;;;;16.82;96.61;101478.19;124951;1093;64308;-83
2021/07/17 03:07:46;;;;;;;21.60;10.00;;;;;;;16.82;96.72;101476.33;124994;1093;64635;-81
2021/07/17 03:10:13;;;;;;;15.93;7.57;;;;;;;16.79;96.75;101474.03;125011;1093;64451;-82
2021/07/17 03:12:41;;;;;;;24.17;8.37;;;;;;;16.80;96.99;101485.56;125069;1093;64214;-83
2021/07/17 03:15:08;;;;;;;27.10;10.50;;;;;;;16.79;97.15;101484.75;125022;1092;65379;-83
2021/07/17 03:17:35;;;;;;;25.73;9.73;;;;;;;16.80;97.03;101490.92;124918;1092;64253;-83
2021/07/17 03:20:05;;;;;;;24.65;10.05;;;;;;;16.80;97.16;101488.25;124913;1093;64317;-83
2021/07/17 03:22:32;;;;;;;28.57;11.47;;;;;;;16.79;97.30;101491.94;124967;1093;64297;-84
2021/07/17 03:24:59;;;;;;;28.47;10.93;;;;;;;16.78;97.39;101499.16;124969;1093;65522;-84
2021/07/17 03:27:26;;;;;;;17.10;7.37;;;;;;;16.78;97.42;101496.47;124940;1093;64462;-84
2021/07/17 03:29:53;;;;;;;25.20;10.33;;;;;;;16.78;97.76;101501.02;124966;1093;64303;-82
2021/07/17 03:32:22;;;;;;;27.50;10.33;;;;;;;16.78;97.53;101501.83;125007;1092;64410;-83
2021/07/17 03:34:49;;;;;;;16.60;8.23;;;;;;;16.79;97.89;101502.66;125078;1092;64307;-85
2021/07/17 03:37:17;;;;;;;30.40;10.70;;;;;;;16.80;97.73;101498.97;124903;1093;64282;-82
2021/07/17 03:39:44;;;;;;;21.35;9.50;;;;;;;16.80;97.72;101499.81;124878;1092;64387;-83
2021/07/17 03:42:11;;;;;;;25.37;10.00;;;;;;;16.81;97.84;101495.28;124808;1093;64311;-83
2021/07/17 03:44:38;;;;;;;32.47;10.70;;;;;;;16.82;97.92;101496.95;124885;1093;64283;-83
2021/07/17 03:47:05;;;;;;;28.17;12.83;;;;;;;16.82;97.86;101496.95;124951;1093;64346;-83
2021/07/17 03:49:32;;;;;;;27.67;9.97;;;;;;;16.82;98.18;101486.23;124859;1092;64314;-84
2021/07/17 03:51:59;;;;;;;28.00;10.57;;;;;;;16.79;98.37;101492.78;124791;1093;64291;-82
2021/07/17 03:54:27;;;;;;;20.50;10.77;;;;;;;16.80;98.33;101489.09;124788;1093;64252;-83
2021/07/17 03:56:54;;;;;;;26.03;11.93;;;;;;;16.82;98.33;101483.55;124829;1093;64292;-83
2021/07/17 03:59:22;;;;;;;29.53;10.83;;;;;;;16.81;98.48;101492.59;124830;1093;64275;-83
2021/07/17 04:01:53;;;;;;;26.03;10.83;;;;;;;16.81;98.49;101490.77;124894;1093;64291;-83
2021/07/17 04:04:21;;;;;;;29.40;10.60;;;;;;;16.81;98.44;101492.59;124904;1093;64393;-83
2021/07/17 04:06:49;;;;;;;27.20;11.07;;;;;;;16.83;98.32;101498.59;124993;1093;64214;-82
2021/07/17 04:09:16;;;;;;;22.47;9.93;;;;;;;16.83;98.74;101503.95;124948;1093;64664;-82
2021/07/17 04:11:43;;;;;;;27.07;10.90;;;;;;;16.83;98.60;101493.23;124839;1092;64370;-83
2021/07/17 04:14:10;;;;;;;19.87;10.33;;;;;;;16.85;98.58;101493.86;124903;1093;64345;-82
2021/07/17 04:16:37;;;;;;;32.30;11.20;;;;;;;16.86;98.31;101501.71;124872;1091;64435;-82
2021/07/17 04:19:04;;;;;;;18.07;8.83;;;;;;;16.90;98.39;101504.84;124845;1093;64269;-83
2021/07/17 04:21:32;;;;;;;31.73;11.47;;;;;;;16.92;98.10;101497.43;124900;1092;64308;-83
2021/07/17 04:23:59;;;;;;;22.43;9.07;;;;;;;16.96;98.07;101513.92;124940;1093;64310;-83
2021/07/17 04:26:26;;;;;;;21.97;9.27;;;;;;;16.98;97.89;101502.00;125129;1093;64284;-82
2021/07/17 04:28:53;;;;;;;20.60;9.13;;;;;;;17.01;97.72;101501.59;124880;1092;64342;-83
2021/07/17 04:31:20;;;;;;;36.93;12.30;;;;;;;17.07;97.65;101499.98;124962;1092;64296;-84
2021/07/17 04:33:48;;;;;;;33.40;10.50;;;;;;;17.08;97.40;101491.72;125018;1092;64266;-84
2021/07/17 04:36:15;;;;;;;22.43;10.57;;;;;;;17.14;96.98;101500.02;126554;1093;63041;-84
2021/07/17 04:38:42;;;;;;;34.30;13.13;;;;;;;17.18;96.83;101506.64;127666;1093;64339;-83
2021/07/17 04:41:11;;;;;;;26.83;10.53;;;;;;;17.21;96.73;101501.69;124997;1093;64317;-86
2021/07/17 04:43:38;;;;;;;27.70;8.97;;;;;;;17.23;96.36;101498.81;124905;1093;64288;-82
2021/07/17 04:46:05;;;;;;;24.17;10.07;;;;;;;17.26;96.15;101498.43;124961;1093;64301;-83
2021/07/17 04:48:32;;;;;;;27.30;9.80;;;;;;;17.28;95.84;101499.06;125503;1093;64288;-84
2021/07/17 04:50:59;;;;;;;25.23;10.13;;;;;;;17.29;96.01;101504.20;125134;1093;64358;-82
2021/07/17 04:53:26;;;;;;;27.47;10.10;;;;;;;17.35;95.88;101496.41;124827;1093;64374;-83
2021/07/17 04:55:53;;;;;;;19.00;10.17;;;;;;;17.36;95.54;101492.67;124866;1093;64294;-82
2021/07/17 04:58:20;;;;;;;27.83;9.63;;;;;;;17.37;95.67;101497.84;124907;1093;64693;-82
2021/07/17 05:00:48;;;;;;;28.63;11.70;;;;;;;17.38;95.41;101496.80;124970;1093;64220;-83
2021/07/17 05:03:15;;;;;;;28.55;10.35;;;;;;;17.43;95.22;101496.23;124868;1093;64378;-84
2021/07/17 05:05:42;;;;;;;25.83;9.53;;;;;;;17.48;94.86;101497.27;124843;1093;64445;-83
2021/07/17 05:08:12;;;;;;;24.43;8.17;;;;;;;17.51;94.70;101487.98;124826;1093;64333;-83
2021/07/17 05:10:39;;;;;;;26.23;12.00;;;;;;;17.55;94.43;101491.09;124812;1093;64394;-82
2021/07/17 05:13:13;;;;;;;27.83;11.13;;;;;;;17.57;93.98;101489.86;124908;1093;64395;-83
2021/07/17 05:15:41;;;;;;;22.63;9.85;;;;;;;17.60;93.47;101488.66;124864;1093;64262;-83
2021/07/17 05:18:11;;;;;;;27.05;10.75;;;;;;;17.65;93.36;101505.78;124766;1093;64394;-82
2021/07/17 05:20:39;;;;;;;26.63;11.00;;;;;;;17.68;93.25;101494.66;124861;1093;64272;-82
2021/07/17 05:23:07;;;;;;;18.87;8.10;;;;;;;17.72;92.84;101506.64;124807;1093;64317;-83
2021/07/17 05:25:35;;;;;;;26.30;8.93;;;;;;;17.76;92.75;101495.49;124863;1093;64386;-83
2021/07/17 05:28:03;;;;;;;26.27;10.00;;;;;;;17.80;92.45;101500.24;125017;1093;64310;-83
2021/07/17 05:30:32;;;;;;;25.57;8.67;;;;;;;17.78;91.98;101504.98;125159;1093;64345;-84
2021/07/17 05:33:00;;;;;;;17.33;7.67;;;;;;;17.78;91.82;101507.67;124978;1093;64352;-83
2021/07/17 05:35:30;;;;;;;18.23;8.37;;;;;;;17.77;91.71;101506.03;125308;1093;64356;-84
2021/07/17 05:38:00;;;;;;;21.20;9.63;;;;;;;17.80;91.95;101505.61;124915;1093;64367;-83
2021/07/17 05:40:27;;;;;;;23.57;9.70;;;;;;;17.90;92.07;101499.90;124900;1093;64217;-85
2021/07/17 05:42:54;;;;;;;22.47;8.13;;;;;;;18.02;91.43;101511.70;124822;1093;64221;-83
2021/07/17 05:45:21;;;;;;;19.00;9.90;;;;;;;18.06;90.72;101507.58;124795;1093;64294;-83
2021/07/17 05:47:48;;;;;;;11.27;5.80;;;;;;;18.09;90.37;101511.70;124894;1092;64304;-83
2021/07/17 05:50:17;;;;;;;21.13;8.30;;;;;;;18.11;90.11;101506.95;124826;1092;64310;-83
2021/07/17 05:52:45;;;;;;;16.07;6.93;;;;;;;18.16;89.99;101514.39;125041;1093;64293;-83
2021/07/17 05:55:13;;;;;;;18.77;7.83;;;;;;;18.17;89.49;101511.50;124842;1093;64401;-82
2021/07/17 05:57:40;;;;;;;17.23;7.60;;;;;;;18.21;89.33;101517.27;124830;1093;64294;-84
2021/07/17 06:00:08;;;;;;;24.10;7.65;;;;;;;18.20;89.19;101523.69;124931;1092;64296;-83
2021/07/17 06:02:35;;;;;;;17.80;7.43;;;;;;;18.21;89.33;101522.64;125136;1093;64268;-83
2021/07/17 06:05:03;;;;;;;14.70;6.60;;;;;;;18.23;89.14;101523.27;124821;1092;64294;-83
2021/07/17 06:07:30;;;;;;;14.30;7.23;;;;;;;18.26;89.03;101520.19;124822;1093;64358;-82
2021/07/17 06:09:57;;;;;;;17.87;7.60;;;;;;;18.31;88.85;101523.89;124853;1092;64291;-82
2021/07/17 06:12:25;;;;;;;27.17;9.00;;;;;;;18.37;88.31;101516.05;125088;1092;64387;-83
2021/07/17 06:14:52;;;;;;;26.20;8.17;;;;;;;18.44;87.96;101517.69;125295;1093;64314;-83
2021/07/17 06:17:19;;;;;;;20.87;7.87;;;;;;;18.48;87.71;101529.68;125041;1093;64287;-82
2021/07/17 06:19:46;;;;;;;20.20;7.17;;;;;;;18.57;87.70;101526.78;124982;1093;64561;-82
2021/07/17 06:22:15;;;;;;;15.97;7.47;;;;;;;18.67;86.90;101519.95;124962;1093;64307;-84
2021/07/17 06:24:42;;;;;;;20.53;8.30;;;;;;;18.82;86.39;101529.69;127554;1093;62151;-84
2021/07/17 06:27:09;;;;;;;15.33;6.73;;;;;;;18.85;85.83;101518.51;125197;1093;64864;-83
2021/07/17 06:29:37;;;;;;;17.43;7.33;;;;;;;18.94;85.26;101530.71;124920;1093;64291;-82
2021/07/17 06:32:05;;;;;;;13.23;7.17;;;;;;;18.95;84.83;101525.09;124855;1092;64459;-83
2021/07/17 06:34:32;;;;;;;20.40;6.83;;;;;;;19.04;85.19;101528.42;124888;1093;64502;-81
2021/07/17 06:37:00;;;;;;;14.77;7.00;;;;;;;19.05;84.66;101532.74;124914;1093;64217;-84
2021/07/17 06:39:28;;;;;;;19.20;7.83;;;;;;;19.05;84.57;101535.43;124916;1092;64294;-84
2021/07/17 06:41:55;;;;;;;15.47;6.03;;;;;;;19.10;85.06;101535.61;125206;1093;64713;-82
2021/07/17 06:44:24;;;;;;;14.47;6.57;;;;;;;19.18;84.72;101539.13;125007;1092;64371;-83
2021/07/17 06:46:51;;;;;;;11.17;6.13;;;;;;;19.21;84.48;101541.38;124865;1092;65222;-82
2021/07/17 06:49:19;;;;;;;18.35;6.80;;;;;;;19.23;83.81;101547.38;124892;1093;64376;-84
2021/07/17 06:51:46;;;;;;;15.30;6.30;;;;;;;19.26;83.69;101546.97;124949;1093;64310;-83
2021/07/17 06:54:13;;;;;;;18.13;7.30;;;;;;;19.21;83.81;101549.45;124977;1093;64214;-83
2021/07/17 06:56:40;;;;;;;14.47;6.23;;;;;;;19.14;84.22;101558.36;124873;1092;64310;-82
2021/07/17 06:59:07;;;;;;;16.57;6.53;;;;;;;19.08;84.32;101551.16;124922;1093;64387;-82
2021/07/17 07:01:34;;;;;;;17.17;7.20;;;;;;;19.13;84.63;101542.45;125307;1093;64386;-83
2021/07/17 07:04:02;;;;;;;15.13;6.43;;;;;;;19.18;84.17;101555.27;127171;1093;64246;-84
2021/07/17 07:06:30;;;;;;;17.37;7.30;;;;;;;19.21;84.23;101542.23;126152;1093;64378;-84
2021/07/17 07:08:57;;;;;;;15.37;6.77;;;;;;;19.27;84.76;101548.61;124910;1093;64435;-82
2021/07/17 07:11:24;;;;;;;15.13;6.27;;;;;;;19.37;84.96;101556.25;124839;1093;64374;-83
2021/07/17 07:13:51;;;;;;;15.23;5.67;;;;;;;19.47;83.62;101560.14;124904;1093;64214;-82
2021/07/17 07:16:18;;;;;;;12.97;6.63;;;;;;;19.52;82.89;101556.80;125142;1093;64401;-83
2021/07/17 07:18:45;;;;;;;14.20;6.33;;;;;;;19.54;82.78;101563.63;125042;1093;64397;-83
2021/07/17 07:21:12;;;;;;;14.93;6.63;;;;;;;19.50;82.37;101570.47;125062;1093;64342;-83
2021/07/17 07:23:40;;;;;;;15.17;6.27;;;;;;;19.44;82.65;101571.31;124893;1093;64270;-83
2021/07/17 07:26:07;;;;;;;14.27;6.00;;;;;;;19.56;83.12;101566.92;124854;1092;64300;-83
2021/07/17 07:28:34;;;;;;;13.37;5.40;;;;;;;19.75;82.66;101567.09;125039;1092;64310;-83
2021/07/17 07:31:02;;;;;;;13.70;5.40;;;;;;;19.85;81.27;101562.08;124816;1093;64198;-83
2021/07/17 07:33:29;;;;;;;12.57;4.93;;;;;;;20.01;81.21;101560.73;124874;1093;64295;-83
2021/07/17 07:35:56;;;;;;;17.40;5.87;;;;;;;20.10;80.13;101564.83;124911;1093;64307;-83
2021/07/17 07:38:23;;;;;;;14.17;5.73;;;;;;;20.14;80.21;101559.81;124787;1093;64384;-73
2021/07/17 07:40:50;;;;;;;11.37;5.23;;;;;;;20.33;80.12;101547.25;124650;1092;64265;-73
2021/07/17 07:43:17;;;;;;;14.83;5.10;;;;;;;20.52;78.88;101551.65;124650;1093;64314;-74
2021/07/17 07:45:44;;;;;;;11.47;4.70;;;;;;;20.70;79.21;101559.02;124706;1093;64403;-72
2021/07/17 07:48:11;;;;;;;12.97;4.43;;;;;;;20.79;77.15;101550.64;124644;1093;64274;-73
2021/07/17 07:50:38;;;;;;;12.23;5.03;;;;;;;20.94;77.57;101548.41;124636;1093;64310;-74
2021/07/17 07:53:06;;;;;;;12.80;4.80;;;;;;;21.21;77.04;101554.36;124649;1093;64285;-75
2021/07/17 07:55:32;;;;;;;15.47;5.67;;;;;;;21.50;77.40;101550.08;124694;1093;64243;-73
2021/07/17 07:58:00;;;;;;;11.60;4.50;;;;;;;21.70;75.04;101544.44;124661;1093;64271;-73
2021/07/17 08:00:27;;;;;;;11.57;4.43;;;;;;;21.78;74.72;101544.12;124646;1093;64328;-73
2021/07/17 08:02:54;;;;;;;12.10;4.87;;;;;;;21.81;73.94;101547.42;124660;1093;64301;-73
2021/07/17 08:05:23;;;;;;;11.70;4.53;;;;;;;21.89;74.10;101549.77;124606;1093;64387;-73
2021/07/17 08:07:51;;;;;;;9.87;3.40;;;;;;;22.03;73.42;101545.02;124558;1093;64324;-73
2021/07/17 08:10:19;;;;;;;11.23;3.83;;;;;;;22.13;72.58;101548.80;124563;1093;64387;-74
2021/07/17 08:12:46;;;;;;;11.10;4.37;;;;;;;22.14;71.89;101546.91;124551;1093;64144;-73
2021/07/17 08:15:14;;;;;;;11.10;4.30;;;;;;;22.07;71.40;101551.61;124661;1092;64311;-74
2021/07/17 08:17:42;;;;;;;8.97;4.30;;;;;;;21.98;71.42;101545.70;124555;1093;64310;-73
2021/07/17 08:20:10;;;;;;;10.10;4.10;;;;;;;21.90;71.53;101551.44;124640;1093;64211;-73
2021/07/17 08:22:38;;;;;;;11.60;4.17;;;;;;;21.96;72.79;101542.41;124641;1093;64345;-73
2021/07/17 08:25:08;;;;;;;11.80;4.30;;;;;;;21.98;72.45;101549.23;124650;1093;64313;-74
2021/07/17 08:27:35;;;;;;;10.17;3.13;;;;;;;22.10;72.04;101537.62;124685;1093;64294;-73
2021/07/17 08:30:03;;;;;;;10.73;3.80;;;;;;;22.27;72.17;101535.10;124631;1093;64291;-73
2021/07/17 08:32:30;;;;;;;7.87;3.43;;;;;;;22.41;70.94;101550.06;124823;1093;64377;-72
2021/07/17 08:34:57;;;;;;;9.03;3.63;;;;;;;22.45;69.87;101545.02;124770;1093;64355;-75
2021/07/17 08:37:36;;;;;;;9.83;3.60;;;;;;;22.46;70.10;101533.13;124690;1093;65407;-74
2021/07/17 08:40:06;;;;;;;8.37;3.60;;;;;;;22.52;69.91;101538.42;124724;1093;64326;-74
2021/07/17 08:42:36;;;;;;;7.77;3.30;;;;;;;22.66;70.41;101541.73;124774;1092;64288;-73
2021/07/17 08:45:05;;;;;;;7.10;3.40;;;;;;;22.86;69.75;101543.26;124714;1093;64862;-74
2021/07/17 08:47:37;;;;;;;9.43;4.07;;;;;;;22.90;68.57;101547.95;124824;1092;64381;-73
2021/07/17 08:50:06;;;;;;;9.05;3.60;;;;;;;22.86;68.03;101556.78;124620;1093;64645;-73
2021/07/17 08:52:34;;;;;;;7.97;3.27;;;;;;;22.91;68.13;101543.36;124839;1093;64294;-73
2021/07/17 08:55:05;;;;;;;8.35;2.95;;;;;;;22.99;68.00;101543.00;124640;1093;64321;-73
2021/07/17 08:57:36;;;;;;;6.57;3.10;;;;;;;23.08;66.87;101544.33;124740;1093;64313;-74
2021/07/17 09:00:08;;;;;;;7.90;3.13;;;;;;;23.22;67.75;101549.48;124642;1093;64317;-73
2021/07/17 09:02:58;;;;;;;6.40;3.10;;;;;;;23.26;65.80;101534.41;124730;1093;64310;-73
2021/07/17 09:05:27;;;;;;;4.77;2.70;;;;;;;23.42;65.63;101552.62;124757;1093;64319;-72
2021/07/17 09:07:55;;;;;;;6.50;3.10;;;;;;;23.55;65.34;101541.50;124943;1093;65485;-73
2021/07/17 09:10:33;;;;;;;6.17;3.03;;;;;;;23.73;65.65;101537.77;124817;1092;64265;-73
2021/07/17 09:13:19;;;;;;;4.87;2.60;;;;;;;23.84;64.20;101541.52;124609;1093;64853;-73
2021/07/17 09:16:03;;;;;;;5.80;2.93;;;;;;;23.87;63.42;101549.17;124797;1093;64249;-73
2021/07/17 09:18:49;;;;;;;5.90;3.13;;;;;;;23.95;62.68;101539.81;124692;1092;64469;-73
2021/07/17 09:21:25;;;;;;;5.43;2.80;;;;;;;24.10;63.41;101540.09;124698;1093;65371;-73
2021/07/17 09:23:59;;;;;;;4.00;2.35;;;;;;;24.13;60.23;101530.65;124634;1093;64291;-73
2021/07/17 09:26:32;;;;;;;5.70;2.60;;;;;;;24.26;62.60;101535.74;124829;1093;64310;-75
2021/07/17 09:29:10;;;;;;;6.03;2.03;;;;;;;24.33;58.37;101541.84;124621;1093;64440;-73
2021/07/17 09:31:55;;;;;;;5.37;2.03;;;;;;;24.43;58.77;101535.74;124651;1092;64387;-74
2021/07/17 09:34:31;;;;;;;4.80;2.53;;;;;;;24.66;58.98;101537.48;124797;1093;64214;-73
2021/07/17 09:37:10;;;;;;;6.37;2.30;;;;;;;24.81;59.35;101532.27;124668;1093;64287;-77
2021/07/17 09:39:46;;;;;;;6.43;2.10;;;;;;;24.82;55.59;101533.09;125052;1093;64342;-76
2021/07/17 09:42:15;;;;;;;5.37;2.00;;;;;;;24.94;55.73;101530.28;124687;1092;64326;-72
2021/07/17 09:44:43;;;;;;;5.60;1.90;;;;;;;25.00;55.68;101526.56;124744;1093;64767;-73
2021/07/17 09:47:15;;;;;;;3.37;2.13;;;;;;;25.07;54.54;101521.76;124660;1093;64272;-73
2021/07/17 09:49:42;;;;;;;5.00;2.13;;;;;;;25.04;52.01;101522.28;124627;1093;64321;-73
2021/07/17 09:52:12;;;;;;;3.60;1.50;;;;;;;24.94;51.32;101538.42;124592;1093;64361;-72
2021/07/17 09:55:03;;;;;;;2.35;1.50;;;;;;;24.85;51.57;101526.36;124702;1093;64242;-73
2021/07/17 09:57:31;;;;;;;2.90;1.20;;;;;;;24.93;50.68;101523.22;124520;1092;64292;-73
2021/07/17 10:00:25;;;;;;;3.40;1.20;;;;;;;25.07;51.65;101518.23;124657;1092;64284;-74
2021/07/17 10:02:53;;;;;;;2.70;1.20;;;;;;;25.26;51.13;101525.02;124553;1093;64314;-73
2021/07/17 10:05:37;;;;;;;2.93;1.23;;;;;;;25.37;49.60;101518.62;124560;1093;64407;-74
2021/07/17 10:08:13;;;;;;;4.30;1.65;;;;;;;25.48;50.03;101525.02;124765;1093;64314;-74
2021/07/17 10:10:40;;;;;;;3.93;1.67;;;;;;;25.61;51.57;101515.64;124674;1093;64881;-73
2021/07/17 10:13:07;;;;;;;4.30;1.20;;;;;;;25.61;49.28;101524.61;124630;1093;64284;-74
2021/07/17 10:15:35;;;;;;;6.07;1.43;;;;;;;25.69;49.77;101527.94;124685;1093;64306;-73
2021/07/17 10:18:25;;;;;;;4.05;1.35;;;;;;;25.78;49.60;101523.70;124578;1093;64284;-72
2021/07/17 10:20:54;;;;;;;3.23;1.20;;;;;;;25.95;48.37;101529.87;124688;1093;64374;-73
2021/07/17 10:23:21;;;;;;;3.33;1.40;;;;;;;25.99;48.75;101524.71;124662;1093;64291;-73
2021/07/17 10:25:48;;;;;;;2.60;1.30;;;;;;;26.03;48.71;101523.97;124597;1093;64256;-73
2021/07/17 10:28:16;;;;;;;3.30;1.20;;;;;;;26.06;48.50;101521.81;124662;1093;64311;-74
2021/07/17 10:30:44;;;;;;;3.30;1.20;;;;;;;26.11;50.43;101519.93;124720;1093;64374;-74
2021/07/17 10:33:11;;;;;;;2.40;1.30;;;;;;;26.17;46.45;101529.77;124720;1093;64316;-73
2021/07/17 10:35:39;;;;;;;2.95;1.10;;;;;;;26.33;47.44;101528.02;124661;1093;65152;-73
2021/07/17 10:38:11;;;;;;;1.53;0.80;;;;;;;26.49;47.45;101531.66;124639;1093;64291;-73
2021/07/17 10:40:39;;;;;;;10.07;1.50;;;;;;;26.44;46.78;101529.72;124672;1093;64313;-75
2021/07/17 10:43:09;;;;;;;3.07;1.20;;;;;;;26.35;47.54;101527.73;124708;1093;64428;-73
2021/07/17 10:45:45;;;;;;;2.23;1.40;;;;;;;26.33;48.05;101528.02;124729;1093;64385;-74
2021/07/17 10:48:31;;;;;;;3.07;1.27;;;;;;;26.30;47.56;101539.40;124756;1093;64351;-74
2021/07/17 10:51:02;;;;;;;5.50;1.20;;;;;;;26.21;47.82;101527.37;124759;1093;64285;-74
2021/07/17 10:53:49;;;;;;;2.90;1.43;;;;;;;26.18;47.61;101544.19;124720;1093;64336;-73
2021/07/17 10:56:28;;;;;;;6.30;1.20;;;;;;;26.11;48.68;101521.84;124598;1092;64324;-74
2021/07/17 10:59:19;;;;;;;5.80;1.60;;;;;;;26.03;47.93;101510.38;124792;1093;64294;-74
2021/07/17 11:02:02;;;;;;;4.57;1.47;;;;;;;26.01;48.42;101528.84;124584;1093;64319;-73
2021/07/17 11:04:51;;;;;;;4.93;1.47;;;;;;;25.97;47.02;101521.43;124655;1093;64278;-75
2021/07/17 11:07:18;;;;;;;5.77;1.70;;;;;;;26.02;48.26;101505.19;124619;1092;64288;-73
2021/07/17 11:09:56;;;;;;;1.93;0.90;;;;;;;26.15;47.66;101509.37;124662;1093;64310;-73
2021/07/17 11:12:29;;;;;;;2.47;1.00;;;;;;;26.11;46.34;101513.68;124611;1093;64460;-73
2021/07/17 11:15:05;;;;;;;4.13;1.30;;;;;;;26.31;46.99;101516.57;124828;1093;64986;-75
2021/07/17 11:17:41;;;;;;;5.10;1.20;;;;;;;26.41;47.03;101516.63;124717;1092;64313;-74
2021/07/17 11:20:16;;;;;;;2.77;1.23;;;;;;;26.56;47.44;101513.22;124678;1093;64333;-74